KPMU/PMU METAR and TAF weather

Enter ICAO airport designator
Station Type Date Time Source
KPMU METAR 2020/07/11 20:15 UTC NOAA

KPMU 112015Z AUTO 00000KT 10SM CLR 33/21 A2997 RMK AO2


Station Type Date Time Source
KPMU Decoded METAR 2020/07/11 20:15 UTC NOAA

Station name not available
Jul 11, 2020 - 04:15 PM EDT / 2020.07.11 2015 UTC
Wind: Calm:0
Visibility: 10 mile(s):0
Sky conditions: clear
Temperature: 91 F (33 C)
Heat index: 96.1 F (35.6 C):1
Dew Point: 69 F (21 C)
Relative Humidity: 49%
Pressure (altimeter): 29.97 in. Hg (1014 hPa)
ob: KPMU 112015Z AUTO 00000KT 10SM CLR 33/21 A2997 RMK AO2
cycle: 20

Station Type Date Time Source
KPMU TAF UTC NOAA

Error!

Example: see airport list